createdAt,value
2023-05-23T00:01:43.815Z,14.85
2023-05-23T00:04:46.263Z,14.70
2023-05-23T00:07:51.829Z,14.59
2023-05-23T00:10:56.521Z,14.56
2023-05-23T00:14:02.277Z,14.39
2023-05-23T00:17:05.477Z,14.24
2023-05-23T00:20:10.760Z,14.16
2023-05-23T00:23:19.489Z,14.09
2023-05-23T00:26:24.319Z,14.04
2023-05-23T00:29:35.102Z,14.00
2023-05-23T00:32:41.599Z,13.92
2023-05-23T00:35:45.633Z,13.94
2023-05-23T00:38:54.102Z,13.98
2023-05-23T00:42:00.482Z,13.96
2023-05-23T00:45:06.875Z,13.96
2023-05-23T00:48:20.204Z,13.87
2023-05-23T00:51:22.475Z,13.85
2023-05-23T00:54:34.036Z,13.81
2023-05-23T00:57:40.081Z,13.75
2023-05-23T01:00:46.403Z,13.74
2023-05-23T01:03:51.051Z,13.67
2023-05-23T01:06:56.670Z,13.61
2023-05-23T01:10:16.017Z,13.50
2023-05-23T01:13:42.357Z,13.42
2023-05-23T01:16:51.628Z,13.30
2023-05-23T01:20:01.584Z,13.33
2023-05-23T01:23:29.831Z,13.36
2023-05-23T01:26:43.447Z,13.30
2023-05-23T01:29:54.670Z,13.27
2023-05-23T01:32:57.169Z,13.22
2023-05-23T01:36:03.597Z,13.11
2023-05-23T01:39:08.297Z,13.09
2023-05-23T01:42:12.918Z,13.09
2023-05-23T01:45:18.551Z,13.11
2023-05-23T01:48:24.818Z,13.10
2023-05-23T01:51:27.329Z,13.07
2023-05-23T01:54:30.032Z,13.09
2023-05-23T01:57:38.337Z,13.11
2023-05-23T02:00:42.260Z,13.13
2023-05-23T02:03:47.220Z,13.11
2023-05-23T02:10:13.802Z,13.10
2023-05-23T02:13:16.145Z,13.10
2023-05-23T02:16:19.900Z,13.14
2023-05-23T02:19:22.094Z,13.11
2023-05-23T02:22:26.785Z,13.11
2023-05-23T02:25:31.441Z,13.08
2023-05-23T02:28:33.715Z,13.07
2023-05-23T02:31:37.739Z,13.13
2023-05-23T02:34:42.367Z,13.14
2023-05-23T02:37:49.354Z,13.16
2023-05-23T02:40:53.752Z,13.14
2023-05-23T02:43:58.127Z,13.12
2023-05-23T02:47:02.083Z,13.12
2023-05-23T02:50:06.816Z,13.21
2023-05-23T02:53:10.072Z,13.15
2023-05-23T02:56:31.343Z,13.14
2023-05-23T02:59:35.141Z,13.08
2023-05-23T03:02:39.071Z,13.10
2023-05-23T03:05:44.539Z,13.04
2023-05-23T03:08:54.724Z,13.00
2023-05-23T03:12:00.322Z,12.97
2023-05-23T03:15:07.530Z,13.04
2023-05-23T03:18:14.667Z,12.97
2023-05-23T03:21:18.141Z,12.94
2023-05-23T03:24:20.378Z,12.83
2023-05-23T03:27:22.717Z,12.64
2023-05-23T03:30:26.916Z,12.60
2023-05-23T03:33:41.023Z,12.43
2023-05-23T03:36:46.781Z,12.44
2023-05-23T03:39:51.275Z,12.43
2023-05-23T03:43:04.606Z,12.36
2023-05-23T03:46:19.633Z,12.33
2023-05-23T03:49:30.208Z,12.34
2023-05-23T03:52:39.823Z,12.31
2023-05-23T03:55:46.928Z,12.29
2023-05-23T03:58:49.216Z,12.24
2023-05-23T04:01:55.399Z,12.28
2023-05-23T04:05:02.007Z,12.28
2023-05-23T04:08:09.469Z,12.21
2023-05-23T04:11:13.682Z,12.19
2023-05-23T04:14:21.949Z,12.15
2023-05-23T04:17:27.986Z,12.15
2023-05-23T04:20:51.117Z,12.15
2023-05-23T04:24:09.933Z,12.16
2023-05-23T04:27:23.894Z,12.16
2023-05-23T04:30:44.675Z,12.21
2023-05-23T04:33:49.449Z,12.19
2023-05-23T04:37:02.383Z,12.13
2023-05-23T04:40:12.177Z,12.11
2023-05-23T04:43:37.310Z,12.12
2023-05-23T04:47:03.316Z,12.09
2023-05-23T04:50:35.962Z,12.11
2023-05-23T04:53:44.899Z,12.15
2023-05-23T04:56:47.275Z,12.15
2023-05-23T04:59:57.331Z,12.17
2023-05-23T05:03:01.152Z,12.19
2023-05-23T05:06:07.326Z,12.16
2023-05-23T05:09:11.626Z,12.11
2023-05-23T05:12:16.829Z,12.12
2023-05-23T05:15:20.403Z,12.17
2023-05-23T05:18:27.521Z,12.20
2023-05-23T05:21:36.259Z,12.21
2023-05-23T05:24:41.469Z,12.26
2023-05-23T05:27:44.187Z,12.25
2023-05-23T05:30:55.428Z,12.27
2023-05-23T05:34:01.867Z,12.29
2023-05-23T05:37:04.265Z,12.23
2023-05-23T05:40:19.265Z,12.25
2023-05-23T05:43:24.497Z,12.28
2023-05-23T05:46:31.695Z,12.27
2023-05-23T05:49:33.699Z,12.26
2023-05-23T05:52:38.990Z,12.26
2023-05-23T05:55:45.940Z,12.25
2023-05-23T05:58:52.585Z,12.28
2023-05-23T06:01:58.949Z,12.30
2023-05-23T06:05:03.515Z,12.34
2023-05-23T06:08:15.315Z,12.37
2023-05-23T06:11:19.367Z,12.38
2023-05-23T06:14:43.203Z,12.43
2023-05-23T06:17:52.492Z,12.42
2023-05-23T06:21:02.549Z,12.41
2023-05-23T06:24:06.710Z,12.44
2023-05-23T06:27:10.501Z,12.41
2023-05-23T06:30:15.389Z,12.41
2023-05-23T06:33:20.455Z,12.39
2023-05-23T06:36:32.579Z,12.39
2023-05-23T06:39:38.874Z,12.36
2023-05-23T06:42:50.926Z,12.35
2023-05-23T06:46:07.242Z,12.36
2023-05-23T06:49:15.196Z,12.36
2023-05-23T06:52:19.816Z,12.33
2023-05-23T06:55:24.528Z,12.33
2023-05-23T06:58:30.270Z,12.28
2023-05-23T07:01:38.042Z,12.23
2023-05-23T07:04:42.210Z,12.22
2023-05-23T07:07:55.561Z,12.21
2023-05-23T07:10:58.284Z,12.22
2023-05-23T07:14:12.090Z,12.21
2023-05-23T07:17:20.363Z,12.11
2023-05-23T07:20:26.582Z,12.08
2023-05-23T07:23:36.268Z,12.09
2023-05-23T07:26:43.045Z,12.09
2023-05-23T07:29:51.068Z,12.00
2023-05-23T07:32:53.975Z,11.93
2023-05-23T07:36:06.979Z,11.96
2023-05-23T07:39:15.714Z,11.90
2023-05-23T07:42:20.261Z,11.85
2023-05-23T07:45:22.670Z,11.89
2023-05-23T07:48:41.337Z,11.82
2023-05-23T07:51:45.695Z,11.80
2023-05-23T07:54:51.672Z,11.80
2023-05-23T07:57:57.679Z,11.86
2023-05-23T08:01:03.775Z,11.87
2023-05-23T08:04:26.404Z,11.84
2023-05-23T08:07:33.984Z,11.84
2023-05-23T08:10:40.403Z,11.80
2023-05-23T08:13:51.482Z,11.75
2023-05-23T08:17:20.932Z,11.68
2023-05-23T08:20:32.475Z,11.64
2023-05-23T08:23:42.557Z,11.61
2023-05-23T08:26:58.427Z,11.50
2023-05-23T08:30:27.709Z,11.44
2023-05-23T08:33:31.389Z,11.26
2023-05-23T08:36:44.083Z,11.16
2023-05-23T08:40:00.327Z,11.10
2023-05-23T08:43:22.886Z,11.04
2023-05-23T08:46:27.574Z,11.06
2023-05-23T08:49:32.768Z,11.08
2023-05-23T08:53:00.490Z,11.06
2023-05-23T08:56:18.660Z,11.08
2023-05-23T08:59:38.230Z,11.04
2023-05-23T09:02:52.778Z,11.02
2023-05-23T09:06:34.732Z,10.96
2023-05-23T09:09:41.628Z,10.92
2023-05-23T09:13:00.820Z,10.91
2023-05-23T09:16:25.167Z,10.85
2023-05-23T09:19:50.955Z,10.82
2023-05-23T09:23:14.119Z,10.82
2023-05-23T09:26:18.367Z,10.85
2023-05-23T09:29:24.605Z,10.84
2023-05-23T09:32:30.582Z,10.83
2023-05-23T09:35:36.440Z,10.81
2023-05-23T09:38:56.814Z,10.84
2023-05-23T09:42:17.244Z,10.86
2023-05-23T09:45:37.666Z,10.82
2023-05-23T09:49:04.794Z,10.82
2023-05-23T09:52:21.538Z,10.79
2023-05-23T09:56:06.176Z,10.80
2023-05-23T09:59:49.567Z,10.84
2023-05-23T10:03:26.390Z,10.91
2023-05-23T10:07:01.772Z,10.98
2023-05-23T10:10:25.201Z,10.97
2023-05-23T10:13:33.136Z,10.83
2023-05-23T10:16:59.351Z,10.68
2023-05-23T10:20:14.957Z,10.64
2023-05-23T10:23:56.418Z,10.57
2023-05-23T10:27:49.415Z,10.50
2023-05-23T10:31:19.591Z,10.51
2023-05-23T10:34:41.074Z,10.55
2023-05-23T10:37:53.881Z,10.46
2023-05-23T10:41:21.627Z,10.38
2023-05-23T10:44:35.982Z,10.36
2023-05-23T10:47:55.376Z,10.27
2023-05-23T10:55:19.092Z,10.07
2023-05-23T10:59:00.666Z,10.06
2023-05-23T11:05:53.421Z,10.03
2023-05-23T11:09:25.605Z,10.00
2023-05-23T11:13:20.881Z,9.99
2023-05-23T11:28:21.068Z,9.98
2023-05-23T11:44:06.732Z,9.91
2023-05-23T11:47:48.039Z,9.82
2023-05-23T11:56:02.191Z,9.80
2023-05-23T12:00:19.453Z,9.86
2023-05-23T12:07:03.515Z,10.10
2023-05-23T12:15:21.938Z,10.69
2023-05-23T12:18:17.732Z,10.96
2023-05-23T12:22:15.354Z,10.90
2023-05-23T12:25:30.896Z,11.08
2023-05-23T12:29:35.407Z,10.85
2023-05-23T12:33:25.963Z,10.99
2023-05-23T12:40:36.193Z,10.88
2023-05-23T12:44:05.724Z,10.78
2023-05-23T12:50:54.967Z,10.79
2023-05-23T12:54:33.025Z,10.91
2023-05-23T12:57:54.042Z,10.85
2023-05-23T13:01:10.008Z,10.69
2023-05-23T13:04:53.564Z,10.63
2023-05-23T13:12:35.791Z,10.79
2023-05-23T13:15:51.750Z,10.81
2023-05-23T13:19:21.293Z,10.81
2023-05-23T13:23:19.190Z,10.98
2023-05-23T13:26:40.389Z,11.40
2023-05-23T13:30:02.738Z,11.85
2023-05-23T13:33:50.534Z,12.18
2023-05-23T13:37:16.516Z,12.16
2023-05-23T13:40:46.339Z,12.23
2023-05-23T13:48:58.932Z,12.30
2023-05-23T13:52:49.249Z,12.12
2023-05-23T14:00:08.018Z,12.15
2023-05-23T14:03:27.613Z,12.22
2023-05-23T14:06:45.091Z,12.14
2023-05-23T14:10:10.053Z,12.28
2023-05-23T14:13:16.743Z,12.78
2023-05-23T14:16:28.506Z,13.29
2023-05-23T14:20:01.389Z,13.05
2023-05-23T14:23:12.600Z,12.93
2023-05-23T14:26:31.167Z,12.52
2023-05-23T14:29:45.159Z,12.61
2023-05-23T14:33:01.719Z,12.77
2023-05-23T14:36:04.459Z,12.42
2023-05-23T14:39:17.847Z,12.33
2023-05-23T14:42:20.138Z,12.33
2023-05-23T14:45:28.212Z,12.65
2023-05-23T14:48:40.986Z,12.71
2023-05-23T14:51:51.819Z,13.15
2023-05-23T14:54:58.957Z,13.20
2023-05-23T14:58:11.879Z,12.89
2023-05-23T15:01:20.836Z,12.50
2023-05-23T15:04:25.267Z,12.30
2023-05-23T15:07:29.774Z,12.17
2023-05-23T15:10:33.641Z,12.23
2023-05-23T15:13:38.076Z,12.07
2023-05-23T15:17:02.000Z,12.30
2023-05-23T15:20:23.328Z,12.25
2023-05-23T15:23:46.308Z,12.10
2023-05-23T15:26:51.635Z,12.03
2023-05-23T15:30:05.261Z,12.03
2023-05-23T15:33:13.239Z,11.99
2023-05-23T15:36:33.728Z,11.97
2023-05-23T15:39:38.274Z,12.09
2023-05-23T15:42:40.541Z,12.16
2023-05-23T15:45:43.898Z,12.08
2023-05-23T15:49:17.453Z,11.97
2023-05-23T15:52:11.776Z,11.82
2023-05-23T15:55:16.686Z,11.79
2023-05-23T15:58:21.627Z,11.73
2023-05-23T16:01:36.621Z,11.75
2023-05-23T16:04:39.112Z,11.74
2023-05-23T16:07:43.435Z,11.74
2023-05-23T16:10:51.756Z,11.71
2023-05-23T16:13:59.258Z,11.77
2023-05-23T16:17:30.298Z,11.94
2023-05-23T16:20:44.579Z,12.01
2023-05-23T16:23:52.919Z,11.96
2023-05-23T16:26:57.656Z,11.85
2023-05-23T16:29:59.884Z,11.84
2023-05-23T16:33:19.570Z,11.75
2023-05-23T16:36:22.195Z,11.76
2023-05-23T16:39:43.588Z,11.71
2023-05-23T16:42:47.797Z,11.66
2023-05-23T16:45:52.981Z,11.66
2023-05-23T16:49:12.471Z,11.59
2023-05-23T16:52:22.486Z,11.55
2023-05-23T16:55:31.806Z,11.55
2023-05-23T16:58:52.880Z,11.48
2023-05-23T17:01:58.948Z,11.43
2023-05-23T17:05:03.951Z,11.43
2023-05-23T17:08:06.492Z,11.43
2023-05-23T17:11:15.380Z,11.51
2023-05-23T17:14:37.535Z,11.51
2023-05-23T17:17:41.016Z,11.50
2023-05-23T17:20:54.927Z,11.44
2023-05-23T17:24:04.517Z,11.43
2023-05-23T17:27:08.258Z,11.51
2023-05-23T17:30:14.760Z,11.59
2023-05-23T17:33:19.471Z,11.68
2023-05-23T17:36:21.463Z,11.58
2023-05-23T17:39:24.728Z,11.48
2023-05-23T17:42:28.237Z,11.37
2023-05-23T17:45:31.529Z,11.34
2023-05-23T17:48:46.537Z,11.25
2023-05-23T17:51:50.530Z,11.20
2023-05-23T17:54:52.535Z,11.19
2023-05-23T17:57:56.005Z,11.14
2023-05-23T18:00:59.565Z,11.14
2023-05-23T18:04:02.202Z,11.13
2023-05-23T18:07:05.986Z,11.04
2023-05-23T18:10:11.658Z,10.97
2023-05-23T18:13:15.577Z,10.89
2023-05-23T18:16:19.004Z,10.81
2023-05-23T18:19:21.204Z,10.71
2023-05-23T18:22:23.525Z,10.65
2023-05-23T18:25:29.445Z,10.59
2023-05-23T18:28:32.962Z,10.54
2023-05-23T18:31:35.375Z,10.51
2023-05-23T18:34:37.925Z,10.45
2023-05-23T18:37:41.925Z,10.42
2023-05-23T18:40:45.157Z,10.40
2023-05-23T18:43:49.055Z,10.41
2023-05-23T18:46:51.342Z,10.40
2023-05-23T18:49:53.802Z,10.39
2023-05-23T18:52:57.635Z,10.38
2023-05-23T18:55:59.690Z,10.36
2023-05-23T18:59:03.533Z,10.32
2023-05-23T19:02:06.409Z,10.27
2023-05-23T19:05:08.816Z,10.23
2023-05-23T19:08:14.182Z,10.18
2023-05-23T19:11:17.399Z,10.14
2023-05-23T19:14:22.022Z,10.07
2023-05-23T19:17:24.447Z,10.02
2023-05-23T19:20:26.813Z,9.97
2023-05-23T19:23:30.206Z,9.90
2023-05-23T19:26:32.361Z,9.85
2023-05-23T19:29:35.939Z,9.77
2023-05-23T19:32:38.810Z,9.71
2023-05-23T19:35:40.992Z,9.65
2023-05-23T19:38:43.418Z,9.60
2023-05-23T19:41:45.826Z,9.54
2023-05-23T19:44:52.218Z,9.48
2023-05-23T19:47:54.373Z,9.45
2023-05-23T19:50:56.654Z,9.40
2023-05-23T19:54:00.023Z,9.33
2023-05-23T19:57:02.679Z,9.27
2023-05-23T20:00:07.299Z,9.19
2023-05-23T20:03:09.722Z,9.12
2023-05-23T20:06:12.605Z,9.06
2023-05-23T20:09:16.512Z,9.01
2023-05-23T20:12:18.742Z,8.96
2023-05-23T20:15:38.162Z,8.89
2023-05-23T20:18:42.816Z,8.83
2023-05-23T20:21:45.339Z,8.78
2023-05-23T20:24:50.339Z,8.72
2023-05-23T20:27:52.492Z,8.68
2023-05-23T20:30:58.786Z,8.64
2023-05-23T20:34:00.962Z,8.60
2023-05-23T20:37:04.648Z,8.51
2023-05-23T20:40:10.114Z,8.47
2023-05-23T20:43:12.439Z,8.41
2023-05-23T20:46:15.951Z,8.35
2023-05-23T20:49:17.956Z,8.29
2023-05-23T20:52:20.039Z,8.27
2023-05-23T20:55:22.451Z,8.23
2023-05-23T20:58:26.316Z,8.20
2023-05-23T21:01:32.097Z,8.15
2023-05-23T21:04:34.121Z,8.09
2023-05-23T21:07:37.702Z,8.03
2023-05-23T21:10:40.185Z,7.98
2023-05-23T21:13:51.434Z,7.94
2023-05-23T21:16:58.468Z,7.88
2023-05-23T21:20:01.124Z,7.84
2023-05-23T21:23:05.420Z,7.81
2023-05-23T21:26:07.819Z,7.79
2023-05-23T21:29:09.843Z,7.74
2023-05-23T21:32:14.930Z,7.69
2023-05-23T21:35:18.521Z,7.56
2023-05-23T21:38:25.381Z,7.55
2023-05-23T21:41:30.071Z,7.46
2023-05-23T21:44:32.449Z,7.38
2023-05-23T21:47:36.245Z,7.36
2023-05-23T21:50:38.311Z,7.32
2023-05-23T21:53:42.107Z,7.29
2023-05-23T21:56:44.416Z,7.29
2023-05-23T21:59:51.227Z,7.25
2023-05-23T22:02:57.191Z,7.27
2023-05-23T22:05:59.278Z,7.26
2023-05-23T22:09:01.381Z,7.20
2023-05-23T22:12:04.881Z,7.19
2023-05-23T22:15:07.688Z,7.14
2023-05-23T22:18:13.851Z,7.12
2023-05-23T22:21:16.381Z,7.10
2023-05-23T22:24:18.735Z,7.06
2023-05-23T22:27:20.914Z,7.01
2023-05-23T22:30:22.876Z,6.93
2023-05-23T22:33:26.285Z,6.87
2023-05-23T22:36:28.426Z,6.87
2023-05-23T22:39:30.603Z,6.88
2023-05-23T22:42:32.966Z,6.86
2023-05-23T22:45:40.962Z,6.78
2023-05-23T22:48:45.177Z,6.72
2023-05-23T22:51:48.386Z,6.65
2023-05-23T22:54:51.579Z,6.60
2023-05-23T22:57:53.838Z,6.63
2023-05-23T23:00:57.043Z,6.63
2023-05-23T23:04:00.358Z,6.59
2023-05-23T23:07:02.854Z,6.55
2023-05-23T23:10:07.154Z,6.59
2023-05-23T23:13:09.161Z,6.48
2023-05-23T23:16:12.049Z,6.43
2023-05-23T23:19:15.497Z,6.35
2023-05-23T23:22:18.777Z,6.34
2023-05-23T23:25:20.940Z,6.29
2023-05-23T23:28:24.283Z,6.23
2023-05-23T23:31:27.624Z,6.19
2023-05-23T23:34:33.957Z,6.14
2023-05-23T23:37:37.918Z,6.06
2023-05-23T23:40:40.890Z,6.02
2023-05-23T23:43:43.120Z,6.01
2023-05-23T23:46:45.044Z,6.01
2023-05-23T23:49:50.639Z,5.99
2023-05-23T23:52:52.753Z,5.96
2023-05-23T23:55:54.867Z,6.04
2023-05-23T23:58:56.896Z,6.00
